Newvida — V7KQ7 — position and weather

sailwx.info

Track history (hours):
 
Tides and Currents Weather Stations Pressure Air Temp Water Temp Dewpoint Dewpoint Depression Visibility Wind Speed Wind Dir Waves Ship Positions

Newvida

Last reported at 2017-Jun-26 13:30 UTC. Time now 2017-Jun-26 14:09 UTC.
Position N 40°39' E 014°24'.

Length 56 m; draft 2.4 m.

Type: Pleasure craft. MMSI: 538080049.

Date/timePositionNaut miles runAvg speedWind from/ knotsBaromVisibWave heightAir tempDewpointWater temp
2017-Jun-26 13:30N 40°39' E 014°24'0 0.0
2017-Jun-26 12:54N 40°39' E 014°24'0 0.0
2017-Jun-26 12:30N 40°39' E 014°24'0 0.0
2017-Jun-26 12:00N 40°39' E 014°24'0 0.0
2017-Jun-26 11:30N 40°39' E 014°24'0 0.4
2017-Jun-26 11:00N 40°39' E 014°24'4 8.7
2017-Jun-26 10:30N 40°39' E 014°18'710.1
2017-Jun-26 09:50N 40°32' E 014°16'1 2.3
2017-Jun-26 09:27N 40°32' E 014°14'0 0.0
2017-Jun-26 08:42N 40°32' E 014°14'0 0.0
2017-Jun-26 08:15N 40°32' E 014°14'0 0.0
2017-Jun-26 07:39N 40°32' E 014°14'0 0.0
2017-Jun-26 07:21N 40°32' E 014°14'0 0.0
2017-Jun-26 05:39N 40°32' E 014°14'0 0.0
2017-Jun-26 05:24N 40°32' E 014°14'0 0.0
2017-Jun-26 04:57N 40°32' E 014°14'0 0.0
2017-Jun-26 04:24N 40°32' E 014°14'0 0.0
2017-Jun-26 03:51N 40°32' E 014°14'0 0.0
2017-Jun-26 03:27N 40°32' E 014°14'0 0.0
2017-Jun-26 03:00N 40°32' E 014°14'0 0.0
2017-Jun-26 02:30N 40°32' E 014°14'0 0.0
2017-Jun-26 02:00N 40°32' E 014°14'0 0.0
2017-Jun-26 01:30N 40°32' E 014°14'0 0.0
2017-Jun-26 01:00N 40°32' E 014°14'0 0.0
2017-Jun-26 00:30N 40°32' E 014°14'0 0.0
2017-Jun-25 23:54N 40°32' E 014°14'0 0.0
2017-Jun-25 23:30N 40°32' E 014°14'0 0.0
2017-Jun-25 23:00N 40°32' E 014°14'0 0.1
2017-Jun-25 22:30N 40°32' E 014°14'0 0.0
2017-Jun-25 22:00N 40°32' E 014°14'0 0.0
2017-Jun-25 21:12N 40°32' E 014°14'0 0.1
2017-Jun-25 21:00N 40°32' E 014°14'0 0.0
2017-Jun-25 20:30N 40°32' E 014°14'0 0.0
2017-Jun-25 20:00N 40°32' E 014°14'0 0.0
2017-Jun-25 19:15N 40°32' E 014°14'0 0.0
2017-Jun-25 19:00N 40°32' E 014°14'0 0.0
2017-Jun-25 18:30N 40°32' E 014°14'0 0.0
2017-Jun-25 18:00N 40°32' E 014°14'0 0.0
2017-Jun-25 17:27N 40°32' E 014°15'0 0.0
2017-Jun-25 16:57N 40°32' E 014°14'0 0.0
2017-Jun-25 16:27N 40°32' E 014°14'0 0.0
2017-Jun-25 15:51N 40°32' E 014°14'0 0.0
2017-Jun-25 15:30N 40°32' E 014°14'0 0.0
2017-Jun-25 14:54N 40°32' E 014°14'0 0.0
2017-Jun-25 13:48N 40°32' E 014°14'0 0.0
2017-Jun-25 13:30N 40°32' E 014°14'0 0.0
2017-Jun-25 12:45N 40°32' E 014°14'0 0.1
2017-Jun-25 12:12N 40°32' E 014°15'0 0.0
2017-Jun-25 11:48N 40°32' E 014°15'0 0.1
2017-Jun-25 11:30N 40°32' E 014°14'0 0.0
2017-Jun-25 11:00N 40°32' E 014°14'0 0.1
2017-Jun-25 10:30N 40°32' E 014°14'0 0.1
2017-Jun-25 09:16N 40°32' E 014°14'0 0.6
2017-Jun-25 08:40N 40°32' E 014°14'0 0.0
2017-Jun-25 07:37N 40°32' E 014°14'0 0.0
2017-Jun-25 01:10N 40°32' E 014°14'0 0.1
2017-Jun-25 00:55N 40°32' E 014°14'0 0.0
2017-Jun-25 00:25N 40°32' E 014°14'0 0.0
2017-Jun-24 22:31N 40°32' E 014°14'0 0.0
2017-Jun-24 22:25N 40°32' E 014°14'0 0.0
2017-Jun-24 18:17N 40°32' E 014°14'13 6.7
2017-Jun-24 16:24N 40°37' E 014°29'11 0.3
2017-Jun-23 09:05N 40°32' E 014°17'112.0
2017-Jun-23 09:00N 40°32' E 014°15'1 0.3
2017-Jun-23 06:42N 40°32' E 014°14'0 0.0
2017-Jun-23 05:48N 40°32' E 014°14'0 0.0
2017-Jun-23 05:30N 40°32' E 014°14'0 0.0
2017-Jun-23 04:48N 40°32' E 014°14'0 0.0
2017-Jun-23 02:54N 40°32' E 014°14'0 0.0
2017-Jun-23 02:30N 40°32' E 014°14'0 0.0
2017-Jun-23 02:00N 40°32' E 014°14'0 0.0
2017-Jun-23 01:30N 40°32' E 014°14'0 0.0
2017-Jun-23 01:00N 40°32' E 014°14'0 0.0
2017-Jun-23 00:18N 40°32' E 014°14'0 0.0
2017-Jun-22 18:09N 40°32' E 014°14'0 0.0
2017-Jun-22 17:57N 40°32' E 014°14'0 0.1
2017-Jun-22 17:30N 40°32' E 014°14'0 0.1
2017-Jun-22 16:51N 40°32' E 014°14'0 0.1
2017-Jun-22 16:30N 40°32' E 014°14'0 0.1
2017-Jun-22 16:00N 40°32' E 014°14'0 0.1
2017-Jun-22 15:30N 40°32' E 014°14'2 4.2
2017-Jun-22 15:00N 40°35' E 014°15'5 9.5
2017-Jun-22 14:30N 40°39' E 014°18'4 0.1
2017-Jun-21 14:01N 40°42' E 014°21'611.5
2017-Jun-21 13:31N 40°40' E 014°13'611.3
2017-Jun-21 13:00N 40°39' E 014°06'611.7
2017-Jun-21 12:29N 40°38' E 013°58'1911.0
2017-Jun-21 10:47N 40°47' E 013°36'311.7
2017-Jun-21 10:30N 40°50' E 013°33'11511.6
2017-Jun-21 00:36N 41°54' E 011°26'111.9
2017-Jun-21 00:30N 41°55' E 011°25'1511.6
2017-Jun-20 23:11N 42°05' E 011°10'211.5
2017-Jun-20 23:00N 42°06' E 011°07'2011.6
2017-Jun-20 21:17N 42°18' E 010°46'511.4
2017-Jun-20 20:53N 42°21' E 010°41'511.4
2017-Jun-20 20:29N 42°24' E 010°36'511.4
2017-Jun-20 20:01N 42°27' E 010°30'4111.4
2017-Jun-20 16:23N 42°48' E 009°42'411.2
2017-Jun-20 15:59N 42°52' E 009°40'711.3
2017-Jun-20 15:20N 42°59' E 009°37'1710.6
2017-Jun-20 13:46N 43°10' E 009°20'311.2
2017-Jun-20 13:29N 43°13' E 009°17'511.4
2017-Jun-20 13:00N 43°16' E 009°11'611.2
2017-Jun-20 12:30N 43°19' E 009°05'511.0
2017-Jun-20 12:00N 43°22' E 008°59'611.1
2017-Jun-20 11:30N 43°26' E 008°52'511.1
2017-Jun-20 11:01N 43°29' E 008°46'611.2
2017-Jun-20 10:30N 43°32' E 008°40'611.3
2017-Jun-20 10:00N 43°36' E 008°34'611.2
2017-Jun-20 09:30N 43°39' E 008°28'511.1
2017-Jun-20 09:00N 43°43' E 008°22'510.7
2017-Jun-20 08:30N 43°47' E 008°17'911.0
2017-Jun-20 07:42N 43°51' E 008°06'311.2
2017-Jun-20 07:27N 43°53' E 008°03'1 1.1
2017-Jun-20 06:49N 43°53' E 008°02'  
Track history (hours):
 
Tides and Currents Weather Stations Pressure Air Temp Water Temp Dewpoint Dewpoint Depression Visibility Wind Speed Wind Dir Waves Ship Positions

Newvida

Last reported at 2017-Jun-26 13:30 UTC. Time now 2017-Jun-26 14:09 UTC.
Position N 40°39' E 014°24'.

Length 56 m; draft 2.4 m.

Type: Pleasure craft. MMSI: 538080049.

Date/timePositionNaut miles runAvg speedWind from/ knotsBaromVisibWave heightAir tempDewpointWater temp
2017-Jun-26 13:30N 40°39' E 014°24'0 0.0
2017-Jun-26 12:54N 40°39' E 014°24'0 0.0
2017-Jun-26 12:30N 40°39' E 014°24'0 0.0
2017-Jun-26 12:00N 40°39' E 014°24'0 0.0
2017-Jun-26 11:30N 40°39' E 014°24'0 0.4
2017-Jun-26 11:00N 40°39' E 014°24'4 8.7
2017-Jun-26 10:30N 40°39' E 014°18'710.1
2017-Jun-26 09:50N 40°32' E 014°16'1 2.3
2017-Jun-26 09:27N 40°32' E 014°14'0 0.0
2017-Jun-26 08:42N 40°32' E 014°14'0 0.0
2017-Jun-26 08:15N 40°32' E 014°14'0 0.0
2017-Jun-26 07:39N 40°32' E 014°14'0 0.0
2017-Jun-26 07:21N 40°32' E 014°14'0 0.0
2017-Jun-26 05:39N 40°32' E 014°14'0 0.0
2017-Jun-26 05:24N 40°32' E 014°14'0 0.0
2017-Jun-26 04:57N 40°32' E 014°14'0 0.0
2017-Jun-26 04:24N 40°32' E 014°14'0 0.0
2017-Jun-26 03:51N 40°32' E 014°14'0 0.0
2017-Jun-26 03:27N 40°32' E 014°14'0 0.0
2017-Jun-26 03:00N 40°32' E 014°14'0 0.0
2017-Jun-26 02:30N 40°32' E 014°14'0 0.0
2017-Jun-26 02:00N 40°32' E 014°14'0 0.0
2017-Jun-26 01:30N 40°32' E 014°14'0 0.0
2017-Jun-26 01:00N 40°32' E 014°14'0 0.0
2017-Jun-26 00:30N 40°32' E 014°14'0 0.0
2017-Jun-25 23:54N 40°32' E 014°14'0 0.0
2017-Jun-25 23:30N 40°32' E 014°14'0 0.0
2017-Jun-25 23:00N 40°32' E 014°14'0 0.1
2017-Jun-25 22:30N 40°32' E 014°14'0 0.0
2017-Jun-25 22:00N 40°32' E 014°14'0 0.0
2017-Jun-25 21:12N 40°32' E 014°14'0 0.1
2017-Jun-25 21:00N 40°32' E 014°14'0 0.0
2017-Jun-25 20:30N 40°32' E 014°14'0 0.0
2017-Jun-25 20:00N 40°32' E 014°14'0 0.0
2017-Jun-25 19:15N 40°32' E 014°14'0 0.0
2017-Jun-25 19:00N 40°32' E 014°14'0 0.0
2017-Jun-25 18:30N 40°32' E 014°14'0 0.0
2017-Jun-25 18:00N 40°32' E 014°14'0 0.0
2017-Jun-25 17:27N 40°32' E 014°15'0 0.0
2017-Jun-25 16:57N 40°32' E 014°14'0 0.0
2017-Jun-25 16:27N 40°32' E 014°14'0 0.0
2017-Jun-25 15:51N 40°32' E 014°14'0 0.0
2017-Jun-25 15:30N 40°32' E 014°14'0 0.0
2017-Jun-25 14:54N 40°32' E 014°14'0 0.0
2017-Jun-25 13:48N 40°32' E 014°14'0 0.0
2017-Jun-25 13:30N 40°32' E 014°14'0 0.0
2017-Jun-25 12:45N 40°32' E 014°14'0 0.1
2017-Jun-25 12:12N 40°32' E 014°15'0 0.0
2017-Jun-25 11:48N 40°32' E 014°15'0 0.1
2017-Jun-25 11:30N 40°32' E 014°14'0 0.0
2017-Jun-25 11:00N 40°32' E 014°14'0 0.1
2017-Jun-25 10:30N 40°32' E 014°14'0 0.1
2017-Jun-25 09:16N 40°32' E 014°14'0 0.6
2017-Jun-25 08:40N 40°32' E 014°14'0 0.0
2017-Jun-25 07:37N 40°32' E 014°14'0 0.0
2017-Jun-25 01:10N 40°32' E 014°14'0 0.1
2017-Jun-25 00:55N 40°32' E 014°14'0 0.0
2017-Jun-25 00:25N 40°32' E 014°14'0 0.0
2017-Jun-24 22:31N 40°32' E 014°14'0 0.0
2017-Jun-24 22:25N 40°32' E 014°14'0 0.0
2017-Jun-24 18:17N 40°32' E 014°14'13 6.7
2017-Jun-24 16:24N 40°37' E 014°29'11 0.3
2017-Jun-23 09:05N 40°32' E 014°17'112.0
2017-Jun-23 09:00N 40°32' E 014°15'1 0.3
2017-Jun-23 06:42N 40°32' E 014°14'0 0.0
2017-Jun-23 05:48N 40°32' E 014°14'0 0.0
2017-Jun-23 05:30N 40°32' E 014°14'0 0.0
2017-Jun-23 04:48N 40°32' E 014°14'0 0.0
2017-Jun-23 02:54N 40°32' E 014°14'0 0.0
2017-Jun-23 02:30N 40°32' E 014°14'0 0.0
2017-Jun-23 02:00N 40°32' E 014°14'0 0.0
2017-Jun-23 01:30N 40°32' E 014°14'0 0.0
2017-Jun-23 01:00N 40°32' E 014°14'0 0.0
2017-Jun-23 00:18N 40°32' E 014°14'0 0.0
2017-Jun-22 18:09N 40°32' E 014°14'0 0.0
2017-Jun-22 17:57N 40°32' E 014°14'0 0.1
2017-Jun-22 17:30N 40°32' E 014°14'0 0.1
2017-Jun-22 16:51N 40°32' E 014°14'0 0.1
2017-Jun-22 16:30N 40°32' E 014°14'0 0.1
2017-Jun-22 16:00N 40°32' E 014°14'0 0.1
2017-Jun-22 15:30N 40°32' E 014°14'2 4.2
2017-Jun-22 15:00N 40°35' E 014°15'5 9.5
2017-Jun-22 14:30N 40°39' E 014°18'4 0.1
2017-Jun-21 14:01N 40°42' E 014°21'611.5
2017-Jun-21 13:31N 40°40' E 014°13'611.3
2017-Jun-21 13:00N 40°39' E 014°06'611.7
2017-Jun-21 12:29N 40°38' E 013°58'1911.0
2017-Jun-21 10:47N 40°47' E 013°36'311.7
2017-Jun-21 10:30N 40°50' E 013°33'11511.6
2017-Jun-21 00:36N 41°54' E 011°26'111.9
2017-Jun-21 00:30N 41°55' E 011°25'1511.6
2017-Jun-20 23:11N 42°05' E 011°10'211.5
2017-Jun-20 23:00N 42°06' E 011°07'2011.6
2017-Jun-20 21:17N 42°18' E 010°46'511.4
2017-Jun-20 20:53N 42°21' E 010°41'511.4
2017-Jun-20 20:29N 42°24' E 010°36'511.4
2017-Jun-20 20:01N 42°27' E 010°30'4111.4
2017-Jun-20 16:23N 42°48' E 009°42'411.2
2017-Jun-20 15:59N 42°52' E 009°40'711.3
2017-Jun-20 15:20N 42°59' E 009°37'1710.6
2017-Jun-20 13:46N 43°10' E 009°20'311.2
2017-Jun-20 13:29N 43°13' E 009°17'511.4
2017-Jun-20 13:00N 43°16' E 009°11'611.2
2017-Jun-20 12:30N 43°19' E 009°05'511.0
2017-Jun-20 12:00N 43°22' E 008°59'611.1
2017-Jun-20 11:30N 43°26' E 008°52'511.1
2017-Jun-20 11:01N 43°29' E 008°46'611.2
2017-Jun-20 10:30N 43°32' E 008°40'611.3
2017-Jun-20 10:00N 43°36' E 008°34'611.2
2017-Jun-20 09:30N 43°39' E 008°28'511.1
2017-Jun-20 09:00N 43°43' E 008°22'510.7
2017-Jun-20 08:30N 43°47' E 008°17'911.0
2017-Jun-20 07:42N 43°51' E 008°06'311.2
2017-Jun-20 07:27N 43°53' E 008°03'1 1.1
2017-Jun-20 06:49N 43°53' E 008°02'  

Dump ship's entire track history